Zeynalabdin Tagiyev — 9HLD8 — position and weather

sailwx.info

Track history (hours):
 
Tides and Currents Weather Stations Pressure Air Temp Water Temp Dewpoint Dewpoint Depression Visibility Wind Speed Wind Dir Waves Ship Positions

Zeynalabdin Tagiyev

Last reported at 2015-Apr-12 11:14 UTC. Time now 2015-Apr-18 13:13 UTC.
Position N 35°36' E 024°41'.

Length 140 m; draft 4.7 m.

Type: Cargo ship. MMSI: 256107000.

Date/timePositionNaut miles runAvg speedWind from/ knotsBaromVisibWave heightAir tempDewpointWater temp
2015-Apr-12 11:14N 35°36' E 024°41'  
2015-Apr-05 17:33N 36°46' E 001°59'53 9.7
2015-Apr-05 12:04N 36°36' E 000°53'611.1
2015-Apr-05 11:32N 36°35' E 000°46'1110.9
2015-Apr-05 10:32N 36°34' E 000°33'1210.5
2015-Apr-05 09:24N 36°32' E 000°18'1210.0
2015-Apr-05 08:09N 36°30' E 000°03'259 9.4
2015-Apr-04 04:34N 35°58' W 005°16'182 8.9
2015-Apr-03 08:04N 36°30' W 008°58'6 8.9
2015-Apr-03 07:23N 36°31' W 009°05'45 8.4
2015-Apr-03 02:04N 37°07' W 009°38'7 9.1
2015-Apr-03 01:21N 37°14' W 009°40'11 9.3
2015-Apr-03 00:08N 37°25' W 009°43'6 9.2
2015-Apr-02 23:26N 37°31' W 009°45'8 9.3
2015-Apr-02 22:34N 37°39' W 009°47'9 9.2
2015-Apr-02 21:33N 37°48' W 009°50'9 9.2
2015-Apr-02 20:32N 37°57' W 009°53'10 9.6
2015-Apr-02 19:33N 38°06' W 009°56'  
Track history (hours):
 
Tides and Currents Weather Stations Pressure Air Temp Water Temp Dewpoint Dewpoint Depression Visibility Wind Speed Wind Dir Waves Ship Positions

Zeynalabdin Tagiyev

Last reported at 2015-Apr-12 11:14 UTC. Time now 2015-Apr-18 13:13 UTC.
Position N 35°36' E 024°41'.

Length 140 m; draft 4.7 m.

Type: Cargo ship. MMSI: 256107000.

Date/timePositionNaut miles runAvg speedWind from/ knotsBaromVisibWave heightAir tempDewpointWater temp
2015-Apr-12 11:14N 35°36' E 024°41'  
2015-Apr-05 17:33N 36°46' E 001°59'53 9.7
2015-Apr-05 12:04N 36°36' E 000°53'611.1
2015-Apr-05 11:32N 36°35' E 000°46'1110.9
2015-Apr-05 10:32N 36°34' E 000°33'1210.5
2015-Apr-05 09:24N 36°32' E 000°18'1210.0
2015-Apr-05 08:09N 36°30' E 000°03'259 9.4
2015-Apr-04 04:34N 35°58' W 005°16'182 8.9
2015-Apr-03 08:04N 36°30' W 008°58'6 8.9
2015-Apr-03 07:23N 36°31' W 009°05'45 8.4
2015-Apr-03 02:04N 37°07' W 009°38'7 9.1
2015-Apr-03 01:21N 37°14' W 009°40'11 9.3
2015-Apr-03 00:08N 37°25' W 009°43'6 9.2
2015-Apr-02 23:26N 37°31' W 009°45'8 9.3
2015-Apr-02 22:34N 37°39' W 009°47'9 9.2
2015-Apr-02 21:33N 37°48' W 009°50'9 9.2
2015-Apr-02 20:32N 37°57' W 009°53'10 9.6
2015-Apr-02 19:33N 38°06' W 009°56'  

Dump ship's entire track history